Flight Track Log - Related Links

Times and Time Zones

All times are in EST time to prevent confusion due to time zone crossing. See the LOF3416 flight status page for this flight to view local times or setup timezone preferences in your user account.

Time Position Orientation Groundspeed Altitude Reporting Facility
EST Latitude Longitude Course Direction KTS MPH feet Rate Location/Type
Fri 06:09:55 PM 41.7040 -88.0680 312° West 100 115 10,900  Level FlightAware ADS-B
Fri 06:10:30 PM 41.6550 -88.0870 196° South 312 359 11,800 1,032 Climbing FlightAware ADS-B
Fri 06:11:28 PM 41.5810 -88.1160 196° South 316 364 12,500 1,304 Climbing FlightAware ADS-B
Fri 06:12:25 PM 41.4910 -88.1480 195° South 332 382 14,300 1,317 Climbing FlightAware ADS-B
Fri 06:12:50 PM 41.4600 -88.1640 201° Southwest 332 382 14,300  Level FlightAware ADS-B
Fri 06:13:14 PM 41.4310 -88.1790 201° Southwest 332 382 14,300  Level FlightAware ADS-B
Fri 06:14:12 PM 41.3600 -88.2150 201° Southwest 332 382 14,300 2,440 Level FlightAware ADS-B
Fri 06:14:45 PM 41.2620 -88.2440 193° South 370 426 18,000 3,245 Climbing FlightAware ADS-B
Fri 06:15:50 PM 41.1580 -88.2920 199° South 408 470 19,600 1,488 Climbing FlightAware ADS-B
Fri 06:16:50 PM 41.0640 -88.3360 199° South 299 344 21,100 1,453 Climbing FlightAware ADS-B
Fri 06:17:25 PM 40.9980 -88.3630 197° South 377 434 21,900 1,275 Climbing FlightAware ADS-B
Fri 06:18:10 PM 40.9290 -88.3970 200° South 387 445 22,800 1,520 Climbing FlightAware ADS-B
Fri 06:18:40 PM 40.8780 -88.4180 197° South 373 429 23,800 1,624 Climbing FlightAware ADS-B
Fri 06:19:35 PM 40.7950 -88.4560 199° South 356 410 25,100 840 Climbing FlightAware ADS-B
Fri 06:20:20 PM 40.7160 -88.4910 199° South 381 438 25,200 257 Climbing FlightAware ADS-B
Fri 06:20:45 PM 40.6730 -88.5080 197° South 384 442 25,400 235 Climbing FlightAware ADS-B
Fri 06:21:11 PM 40.6340 -88.5270 200° South 395 455 25,400  Level FlightAware ADS-B
Fri 06:22:00 PM 40.5550 -88.5630 199° South 375 432 25,400  Level FlightAware ADS-B
Fri 06:22:37 PM 40.4970 -88.5800 193° South 400 460 25,400  Level FlightAware ADS-B
Fri 06:23:23 PM 40.4250 -88.5960 190° South 400 460 25,400  Level FlightAware ADS-B
Fri 06:24:12 PM 40.3500 -88.6140 190° South 400 460 25,400  Level FlightAware ADS-B
Fri 06:24:48 PM 40.2940 -88.6270 190° South 400 460 25,400  Level FlightAware ADS-B
Fri 06:25:47 PM 40.2020 -88.6480 190° South 400 460 25,400 1,500 Level FlightAware ADS-B
Fri 06:26:32 PM 40.1147 -88.9258 190° South 414 476 28,000 1,458 Climbing Kansas City Center
Fri 06:27:34 PM 40.0161 -89.0508 224° Southwest 411 473 28,000  Level Kansas City Center
Fri 06:28:36 PM 39.9339 -89.1556 224° Southwest 411 473 28,000  Level Kansas City Center
Fri 06:29:38 PM 39.8597 -89.2661 229° Southwest 406 467 28,000  Level Kansas City Center
Fri 06:30:40 PM 39.7908 -89.3839 233° Southwest 406 467 28,000  Level Kansas City Center
Fri 06:31:42 PM 39.7219 -89.4989 232° Southwest 404 465 28,000  Level Kansas City Center
Fri 06:32:44 PM 39.6433 -89.6306 232° Southwest 405 466 28,000  Level Kansas City Center
Fri 06:33:46 PM 39.5736 -89.7442 231° Southwest 405 466 28,000  Level Kansas City Center
Fri 06:35:50 PM 39.4364 -89.9725 232° Southwest 403 464 28,000  Level Kansas City Center
Fri 06:36:52 PM 39.3669 -90.0858 232° Southwest 403 464 28,000  Level Kansas City Center
Fri 06:37:54 PM 39.2858 -90.2194 232° Southwest 399 459 28,000  Level Kansas City Center
Fri 06:38:56 PM 39.2169 -90.3314 232° Southwest 399 459 28,000  Level Kansas City Center
Fri 06:39:58 PM 39.1492 -90.4425 232° Southwest 398 458 28,000  Level Kansas City Center
Fri 06:41:00 PM 39.0806 -90.5522 231° Southwest 397 457 28,000  Level Kansas City Center
Fri 06:42:02 PM 39.0128 -90.6633 232° Southwest 398 458 28,000  Level Kansas City Center
Fri 06:43:04 PM 38.9428 -90.7728 231° Southwest 399 459 28,000  Level Kansas City Center
Fri 06:44:05 PM 38.8611 -90.9053 232° Southwest 399 459 28,000  Level Kansas City Center
Fri 06:45:07 PM 38.7928 -91.0158 232° Southwest 399 459 28,000  Level Kansas City Center
Fri 06:46:09 PM 38.7228 -91.1264 231° Southwest 402 463 28,000  Level Kansas City Center
Fri 06:47:11 PM 38.6539 -91.2364 231° Southwest 400 460 28,000  Level Kansas City Center
Fri 06:48:13 PM 38.5836 -91.3467 231° Southwest 401 461 28,000  Level Kansas City Center
Fri 06:49:15 PM 38.5103 -91.4642 231° Southwest 399 459 28,000  Level Kansas City Center
Fri 06:50:17 PM 38.4389 -91.5736 230° Southwest 399 459 28,000 -581 Level Kansas City Center
Fri 06:51:19 PM 38.3542 -91.7053 231° Southwest 399 459 26,800 -1,065 Descending Kansas City Center
Fri 06:52:21 PM 38.2839 -91.8164 231° Southwest 401 461 25,800 -968 Descending Kansas City Center
Fri 06:53:23 PM 38.2108 -91.9289 230° Southwest 409 471 24,800 -1,016 Descending Kansas City Center
Fri 06:54:25 PM 38.1378 -92.0408 230° Southwest 410 472 23,700 -1,355 Descending Kansas City Center
Fri 06:55:27 PM 38.0592 -92.1619 231° Southwest 408 470 22,000 -1,548 Descending Kansas City Center
Fri 06:56:29 PM 37.9883 -92.2706 230° Southwest 403 464 20,500 -1,597 Descending Kansas City Center
Fri 06:57:31 PM 37.9175 -92.3806 231° Southwest 403 464 18,700 -1,707 Descending Kansas City Center
Fri 06:58:32 PM 37.8500 -92.4817 230° Southwest 388 447 17,000 -1,366 Descending Kansas City Center
Fri 06:59:34 PM 37.7881 -92.5808 232° Southwest 372 428 15,900 -1,452 Descending Kansas City Center
Fri 07:00:36 PM 37.7211 -92.6772 229° Southwest 360 414 14,000 -2,032 Descending Kansas City Center
Fri 07:01:38 PM 37.6489 -92.7850 230° Southwest 343 395 11,700 -1,887 Descending Kansas City Center
Fri 07:02:40 PM 37.5953 -92.8644 230° Southwest 317 365 10,100 -1,548 Descending Kansas City Center
Fri 07:04:00 PM 37.5042 -92.9842 226° Southwest  Level FlightAware Approximate
Fri 07:04:44 PM 37.5047 -93.0011 226° Southwest 262 302 6,900  Level Kansas City Center
Fri 07:05:46 PM 37.4603 -93.0681 230° Southwest 254 292 5,500 -1,403 Descending Kansas City Center
Fri 07:06:48 PM 37.4178 -93.1314 230° Southwest 245 282 4,000 -1,210 Descending Kansas City Center
Fri 07:07:50 PM 37.3769 -93.1922 230° Southwest 236 272 3,000 -532 Descending Kansas City Center
Fri 07:08:52 PM 37.3492 -93.2519 240° Southwest 216 249 2,900 -97 Descending Kansas City Center
Fri 07:09:54 PM 37.3367 -93.3244 258° West 190 219 2,800 -194 Descending Kansas City Center
Fri 07:10:56 PM 37.3156 -93.3497 224° Southwest 160 184 2,500 -290 Descending Kansas City Center
Fri 07:12:00 PM 37.2457 -93.3886 219° Southwest  Level Estimated
Fri 07:19:00 PM 37.2457 -93.3886 219° Southwest  Level Estimated
Fri 07:20:00 PM 37.2457 -93.3886 219° Southwest  Level Estimated
Fri 07:21:00 PM 37.2457 -93.3886 219° Southwest  Level Estimated

Login

Don't have an account? Register now (free) for customized features, flight alerts, and more!